Terminal Aerodrome Forecast
Issued by NWS

Home | Current Version | Previous Version | Text Only | Print | Product List | Glossary On
Versions: 1 2 3 4 5 6 7 8 9 10 11 12 13 14 15
000
FTUS44 KTSA 011737
TAFBVO
TAF
KBVO 011737Z 0118/0218 32007KT P6SM SCT035 SCT200
     FM011900 36005KT P6SM VCSH BKN025
     FM020000 35005KT P6SM VCSH BKN025 BKN035 PROB30 0203/0206 -RA
      BKN025
     FM020800 36007KT P6SM BKN025
     FM021400 35004KT P6SM BKN015=

USA.gov is the U.S. government's official web portal to all federal, state and local government web resources and services.